sensor_id;sensor_type;location;lat;lon;timestamp;temperature;humidity
26655;DHT22;14278;50.784;4.630;2023-06-22T00:00:53;22.90;99.90
26655;DHT22;14278;50.784;4.630;2023-06-22T00:03:20;22.80;99.90
26655;DHT22;14278;50.784;4.630;2023-06-22T00:05:46;22.80;99.90
26655;DHT22;14278;50.784;4.630;2023-06-22T00:08:13;22.70;99.90
26655;DHT22;14278;50.784;4.630;2023-06-22T00:10:39;22.60;99.90
26655;DHT22;14278;50.784;4.630;2023-06-22T00:13:06;22.50;99.90
26655;DHT22;14278;50.784;4.630;2023-06-22T00:15:32;22.60;99.90
26655;DHT22;14278;50.784;4.630;2023-06-22T00:17:58;22.50;99.90
26655;DHT22;14278;50.784;4.630;2023-06-22T00:20:25;22.30;99.90
26655;DHT22;14278;50.784;4.630;2023-06-22T00:22:58;22.20;99.90
26655;DHT22;14278;50.784;4.630;2023-06-22T00:25:24;22.30;99.90
26655;DHT22;14278;50.784;4.630;2023-06-22T00:27:50;22.10;99.90
26655;DHT22;14278;50.784;4.630;2023-06-22T00:30:16;22.10;99.90
26655;DHT22;14278;50.784;4.630;2023-06-22T00:32:43;22.20;99.90
26655;DHT22;14278;50.784;4.630;2023-06-22T00:35:09;22.10;99.90
26655;DHT22;14278;50.784;4.630;2023-06-22T00:37:36;22.10;99.90
26655;DHT22;14278;50.784;4.630;2023-06-22T00:40:02;22.00;99.90
26655;DHT22;14278;50.784;4.630;2023-06-22T00:42:30;22.10;99.90
26655;DHT22;14278;50.784;4.630;2023-06-22T00:44:56;22.00;99.90
26655;DHT22;14278;50.784;4.630;2023-06-22T00:47:22;22.10;99.90
26655;DHT22;14278;50.784;4.630;2023-06-22T00:49:49;22.20;99.90
26655;DHT22;14278;50.784;4.630;2023-06-22T00:52:20;22.20;99.90
26655;DHT22;14278;50.784;4.630;2023-06-22T00:54:51;22.10;99.90
26655;DHT22;14278;50.784;4.630;2023-06-22T00:57:17;22.10;99.90
26655;DHT22;14278;50.784;4.630;2023-06-22T00:59:47;22.20;99.90
26655;DHT22;14278;50.784;4.630;2023-06-22T01:02:14;22.10;99.90
26655;DHT22;14278;50.784;4.630;2023-06-22T01:04:40;21.90;99.90
26655;DHT22;14278;50.784;4.630;2023-06-22T01:10:32;22.00;99.90
26655;DHT22;14278;50.784;4.630;2023-06-22T01:13:18;21.90;99.90
26655;DHT22;14278;50.784;4.630;2023-06-22T01:15:53;22.10;99.90
26655;DHT22;14278;50.784;4.630;2023-06-22T01:18:22;22.30;99.90
26655;DHT22;14278;50.784;4.630;2023-06-22T01:20:55;22.50;99.90
26655;DHT22;14278;50.784;4.630;2023-06-22T01:23:46;22.10;99.90
26655;DHT22;14278;50.784;4.630;2023-06-22T01:26:17;22.20;99.90
26655;DHT22;14278;50.784;4.630;2023-06-22T01:28:53;22.00;99.90
26655;DHT22;14278;50.784;4.630;2023-06-22T01:31:23;22.20;99.90
26655;DHT22;14278;50.784;4.630;2023-06-22T01:33:54;21.90;99.90
26655;DHT22;14278;50.784;4.630;2023-06-22T01:36:22;21.70;99.90
26655;DHT22;14278;50.784;4.630;2023-06-22T01:38:49;21.70;99.90
26655;DHT22;14278;50.784;4.630;2023-06-22T01:41:16;21.80;99.90
26655;DHT22;14278;50.784;4.630;2023-06-22T01:43:43;21.90;99.90
26655;DHT22;14278;50.784;4.630;2023-06-22T01:46:11;22.10;99.90
26655;DHT22;14278;50.784;4.630;2023-06-22T01:48:38;22.00;99.90
26655;DHT22;14278;50.784;4.630;2023-06-22T01:51:04;21.90;99.90
26655;DHT22;14278;50.784;4.630;2023-06-22T01:53:30;22.00;99.90
26655;DHT22;14278;50.784;4.630;2023-06-22T01:55:56;22.00;99.90
26655;DHT22;14278;50.784;4.630;2023-06-22T01:58:26;21.90;99.90
26655;DHT22;14278;50.784;4.630;2023-06-22T02:01:20;21.70;99.90
26655;DHT22;14278;50.784;4.630;2023-06-22T02:04:06;21.70;99.90
26655;DHT22;14278;50.784;4.630;2023-06-22T02:06:37;21.90;99.90
26655;DHT22;14278;50.784;4.630;2023-06-22T02:09:14;21.80;99.90
26655;DHT22;14278;50.784;4.630;2023-06-22T02:11:43;21.80;99.90
26655;DHT22;14278;50.784;4.630;2023-06-22T02:14:10;21.60;99.90
26655;DHT22;14278;50.784;4.630;2023-06-22T02:16:37;21.60;99.90
26655;DHT22;14278;50.784;4.630;2023-06-22T02:19:03;21.60;99.90
26655;DHT22;14278;50.784;4.630;2023-06-22T02:21:30;21.60;99.90
26655;DHT22;14278;50.784;4.630;2023-06-22T02:23:56;21.60;99.90
26655;DHT22;14278;50.784;4.630;2023-06-22T02:26:23;21.40;99.90
26655;DHT22;14278;50.784;4.630;2023-06-22T02:28:49;21.30;99.90
26655;DHT22;14278;50.784;4.630;2023-06-22T02:31:15;21.50;99.90
26655;DHT22;14278;50.784;4.630;2023-06-22T02:33:41;21.60;99.90
26655;DHT22;14278;50.784;4.630;2023-06-22T02:36:09;21.70;99.90
26655;DHT22;14278;50.784;4.630;2023-06-22T02:38:37;21.70;99.90
26655;DHT22;14278;50.784;4.630;2023-06-22T02:41:03;21.70;99.90
26655;DHT22;14278;50.784;4.630;2023-06-22T02:43:29;21.40;99.90
26655;DHT22;14278;50.784;4.630;2023-06-22T02:45:56;21.40;99.90
26655;DHT22;14278;50.784;4.630;2023-06-22T02:48:21;21.40;99.90
26655;DHT22;14278;50.784;4.630;2023-06-22T02:50:47;21.30;99.90
26655;DHT22;14278;50.784;4.630;2023-06-22T02:53:13;21.30;99.90
26655;DHT22;14278;50.784;4.630;2023-06-22T02:55:39;21.60;99.90
26655;DHT22;14278;50.784;4.630;2023-06-22T02:58:05;21.80;99.90
26655;DHT22;14278;50.784;4.630;2023-06-22T03:00:32;22.00;99.90
26655;DHT22;14278;50.784;4.630;2023-06-22T03:02:57;21.90;99.90
26655;DHT22;14278;50.784;4.630;2023-06-22T03:05:24;22.00;99.90
26655;DHT22;14278;50.784;4.630;2023-06-22T03:07:50;22.10;99.90
26655;DHT22;14278;50.784;4.630;2023-06-22T03:10:17;22.10;99.90
26655;DHT22;14278;50.784;4.630;2023-06-22T03:12:43;22.10;99.90
26655;DHT22;14278;50.784;4.630;2023-06-22T03:15:11;22.10;99.90
26655;DHT22;14278;50.784;4.630;2023-06-22T03:17:38;22.10;99.90
26655;DHT22;14278;50.784;4.630;2023-06-22T03:20:08;21.70;99.90
26655;DHT22;14278;50.784;4.630;2023-06-22T03:22:39;21.40;99.90
26655;DHT22;14278;50.784;4.630;2023-06-22T03:25:05;21.40;99.90
26655;DHT22;14278;50.784;4.630;2023-06-22T03:27:40;21.50;99.90
26655;DHT22;14278;50.784;4.630;2023-06-22T03:30:08;21.50;99.90
26655;DHT22;14278;50.784;4.630;2023-06-22T03:32:34;21.60;99.90
26655;DHT22;14278;50.784;4.630;2023-06-22T03:35:00;21.50;99.90
26655;DHT22;14278;50.784;4.630;2023-06-22T03:37:27;21.30;99.90
26655;DHT22;14278;50.784;4.630;2023-06-22T03:39:53;21.40;99.90
26655;DHT22;14278;50.784;4.630;2023-06-22T03:42:19;21.40;99.90
26655;DHT22;14278;50.784;4.630;2023-06-22T03:44:45;21.30;99.90
26655;DHT22;14278;50.784;4.630;2023-06-22T03:47:12;21.40;99.90
26655;DHT22;14278;50.784;4.630;2023-06-22T03:49:38;21.40;99.90
26655;DHT22;14278;50.784;4.630;2023-06-22T03:52:05;21.30;99.90
26655;DHT22;14278;50.784;4.630;2023-06-22T03:54:31;21.30;99.90
26655;DHT22;14278;50.784;4.630;2023-06-22T03:56:57;21.30;99.90
26655;DHT22;14278;50.784;4.630;2023-06-22T03:59:24;21.30;99.90
26655;DHT22;14278;50.784;4.630;2023-06-22T04:01:50;21.50;99.90
26655;DHT22;14278;50.784;4.630;2023-06-22T04:04:17;21.40;99.90
26655;DHT22;14278;50.784;4.630;2023-06-22T04:06:43;21.50;99.90
26655;DHT22;14278;50.784;4.630;2023-06-22T04:09:09;21.50;99.90
26655;DHT22;14278;50.784;4.630;2023-06-22T04:11:36;21.60;99.90
26655;DHT22;14278;50.784;4.630;2023-06-22T04:14:02;21.80;99.90
26655;DHT22;14278;50.784;4.630;2023-06-22T04:16:27;21.90;99.90
26655;DHT22;14278;50.784;4.630;2023-06-22T04:18:53;21.60;99.90
26655;DHT22;14278;50.784;4.630;2023-06-22T04:21:19;21.50;99.90
26655;DHT22;14278;50.784;4.630;2023-06-22T04:23:46;21.50;99.90
26655;DHT22;14278;50.784;4.630;2023-06-22T04:26:12;21.60;99.90
26655;DHT22;14278;50.784;4.630;2023-06-22T04:28:39;21.30;99.90
26655;DHT22;14278;50.784;4.630;2023-06-22T04:31:05;21.20;99.90
26655;DHT22;14278;50.784;4.630;2023-06-22T04:33:31;21.10;99.90
26655;DHT22;14278;50.784;4.630;2023-06-22T04:35:58;21.30;99.90
26655;DHT22;14278;50.784;4.630;2023-06-22T04:38:25;21.30;99.90
26655;DHT22;14278;50.784;4.630;2023-06-22T04:40:51;21.30;99.90
26655;DHT22;14278;50.784;4.630;2023-06-22T04:43:17;21.20;99.90
26655;DHT22;14278;50.784;4.630;2023-06-22T04:45:42;20.90;99.90
26655;DHT22;14278;50.784;4.630;2023-06-22T04:48:08;21.00;99.90
26655;DHT22;14278;50.784;4.630;2023-06-22T04:50:36;21.10;99.90
26655;DHT22;14278;50.784;4.630;2023-06-22T04:53:04;21.30;99.90
26655;DHT22;14278;50.784;4.630;2023-06-22T04:55:32;21.40;99.90
26655;DHT22;14278;50.784;4.630;2023-06-22T04:57:57;21.70;99.90
26655;DHT22;14278;50.784;4.630;2023-06-22T05:00:31;21.90;99.90
26655;DHT22;14278;50.784;4.630;2023-06-22T05:02:57;21.90;99.90
26655;DHT22;14278;50.784;4.630;2023-06-22T05:05:23;21.80;99.90
26655;DHT22;14278;50.784;4.630;2023-06-22T05:07:50;21.90;99.90
26655;DHT22;14278;50.784;4.630;2023-06-22T05:10:19;22.40;99.90
26655;DHT22;14278;50.784;4.630;2023-06-22T05:12:46;22.20;99.90
26655;DHT22;14278;50.784;4.630;2023-06-22T05:15:12;22.40;99.90
26655;DHT22;14278;50.784;4.630;2023-06-22T05:17:38;22.30;99.90
26655;DHT22;14278;50.784;4.630;2023-06-22T05:20:09;22.30;99.90
26655;DHT22;14278;50.784;4.630;2023-06-22T05:22:35;22.30;99.90
26655;DHT22;14278;50.784;4.630;2023-06-22T05:25:01;22.10;99.90
26655;DHT22;14278;50.784;4.630;2023-06-22T05:27:27;22.10;99.90
26655;DHT22;14278;50.784;4.630;2023-06-22T05:29:53;21.60;99.90
26655;DHT22;14278;50.784;4.630;2023-06-22T05:32:18;22.00;99.90
26655;DHT22;14278;50.784;4.630;2023-06-22T05:34:45;22.40;99.90
26655;DHT22;14278;50.784;4.630;2023-06-22T05:37:11;22.60;99.90
26655;DHT22;14278;50.784;4.630;2023-06-22T05:39:38;22.00;99.90
26655;DHT22;14278;50.784;4.630;2023-06-22T05:42:05;22.30;99.90
26655;DHT22;14278;50.784;4.630;2023-06-22T05:44:32;22.60;99.90
26655;DHT22;14278;50.784;4.630;2023-06-22T05:46:59;22.70;99.90
26655;DHT22;14278;50.784;4.630;2023-06-22T05:49:25;22.90;99.90
26655;DHT22;14278;50.784;4.630;2023-06-22T05:51:55;22.20;99.90
26655;DHT22;14278;50.784;4.630;2023-06-22T05:54:22;22.50;99.90
26655;DHT22;14278;50.784;4.630;2023-06-22T05:56:48;22.60;99.90
26655;DHT22;14278;50.784;4.630;2023-06-22T05:59:13;22.30;99.90
26655;DHT22;14278;50.784;4.630;2023-06-22T06:01:39;22.60;99.90
26655;DHT22;14278;50.784;4.630;2023-06-22T06:04:05;22.80;99.90
26655;DHT22;14278;50.784;4.630;2023-06-22T06:06:33;22.80;99.90
26655;DHT22;14278;50.784;4.630;2023-06-22T06:09:03;22.40;99.90
26655;DHT22;14278;50.784;4.630;2023-06-22T06:11:29;22.40;99.90
26655;DHT22;14278;50.784;4.630;2023-06-22T06:13:56;22.50;99.90
26655;DHT22;14278;50.784;4.630;2023-06-22T06:16:22;22.70;99.90
26655;DHT22;14278;50.784;4.630;2023-06-22T06:18:48;22.60;99.90
26655;DHT22;14278;50.784;4.630;2023-06-22T06:21:16;22.90;99.90
26655;DHT22;14278;50.784;4.630;2023-06-22T06:23:42;23.10;99.90
26655;DHT22;14278;50.784;4.630;2023-06-22T06:26:08;23.20;99.90
26655;DHT22;14278;50.784;4.630;2023-06-22T06:28:35;23.30;99.90
26655;DHT22;14278;50.784;4.630;2023-06-22T06:31:01;22.70;99.90
26655;DHT22;14278;50.784;4.630;2023-06-22T06:33:26;22.80;99.90
26655;DHT22;14278;50.784;4.630;2023-06-22T06:35:52;22.90;99.90
26655;DHT22;14278;50.784;4.630;2023-06-22T06:38:19;22.10;99.90
26655;DHT22;14278;50.784;4.630;2023-06-22T06:40:44;22.10;99.90
26655;DHT22;14278;50.784;4.630;2023-06-22T06:43:10;22.40;99.90
26655;DHT22;14278;50.784;4.630;2023-06-22T06:45:36;22.70;99.90
26655;DHT22;14278;50.784;4.630;2023-06-22T06:48:02;22.80;99.90
26655;DHT22;14278;50.784;4.630;2023-06-22T06:50:28;23.20;99.90
26655;DHT22;14278;50.784;4.630;2023-06-22T06:52:54;23.60;99.90
26655;DHT22;14278;50.784;4.630;2023-06-22T06:55:21;23.20;99.90
26655;DHT22;14278;50.784;4.630;2023-06-22T06:57:50;22.70;99.90
26655;DHT22;14278;50.784;4.630;2023-06-22T07:00:16;23.20;99.90
26655;DHT22;14278;50.784;4.630;2023-06-22T07:02:44;23.30;99.90
26655;DHT22;14278;50.784;4.630;2023-06-22T07:05:11;23.40;99.90
26655;DHT22;14278;50.784;4.630;2023-06-22T07:07:37;23.50;99.90
26655;DHT22;14278;50.784;4.630;2023-06-22T07:10:04;23.30;99.90
26655;DHT22;14278;50.784;4.630;2023-06-22T07:12:30;23.40;99.90
26655;DHT22;14278;50.784;4.630;2023-06-22T07:15:07;23.50;99.90
26655;DHT22;14278;50.784;4.630;2023-06-22T07:17:37;23.30;99.90
26655;DHT22;14278;50.784;4.630;2023-06-22T07:20:03;23.70;99.90
26655;DHT22;14278;50.784;4.630;2023-06-22T07:22:34;24.30;99.90
26655;DHT22;14278;50.784;4.630;2023-06-22T07:24:59;23.90;99.90
26655;DHT22;14278;50.784;4.630;2023-06-22T07:27:27;24.10;99.90
26655;DHT22;14278;50.784;4.630;2023-06-22T07:29:53;24.20;99.90
26655;DHT22;14278;50.784;4.630;2023-06-22T07:32:20;24.30;99.90
26655;DHT22;14278;50.784;4.630;2023-06-22T07:34:46;23.70;99.90
26655;DHT22;14278;50.784;4.630;2023-06-22T07:37:12;23.90;99.90
26655;DHT22;14278;50.784;4.630;2023-06-22T07:39:38;23.70;99.90
26655;DHT22;14278;50.784;4.630;2023-06-22T07:42:04;23.60;99.90
26655;DHT22;14278;50.784;4.630;2023-06-22T07:44:30;23.50;99.90
26655;DHT22;14278;50.784;4.630;2023-06-22T07:46:56;23.60;99.90
26655;DHT22;14278;50.784;4.630;2023-06-22T07:49:21;23.60;99.90
26655;DHT22;14278;50.784;4.630;2023-06-22T07:51:48;23.30;99.90
26655;DHT22;14278;50.784;4.630;2023-06-22T07:54:13;23.30;99.90
26655;DHT22;14278;50.784;4.630;2023-06-22T07:56:41;22.60;99.90
26655;DHT22;14278;50.784;4.630;2023-06-22T07:59:08;21.80;99.90
26655;DHT22;14278;50.784;4.630;2023-06-22T08:01:34;21.50;99.90
26655;DHT22;14278;50.784;4.630;2023-06-22T08:04:00;21.50;99.90
26655;DHT22;14278;50.784;4.630;2023-06-22T08:06:26;21.40;99.90
26655;DHT22;14278;50.784;4.630;2023-06-22T08:08:52;21.50;99.90
26655;DHT22;14278;50.784;4.630;2023-06-22T08:11:20;21.80;99.90
26655;DHT22;14278;50.784;4.630;2023-06-22T08:13:47;21.90;99.90
26655;DHT22;14278;50.784;4.630;2023-06-22T08:16:14;22.20;99.90
26655;DHT22;14278;50.784;4.630;2023-06-22T08:18:40;22.20;99.90
26655;DHT22;14278;50.784;4.630;2023-06-22T08:21:06;22.40;99.90
26655;DHT22;14278;50.784;4.630;2023-06-22T08:23:32;22.60;99.90
26655;DHT22;14278;50.784;4.630;2023-06-22T08:25:57;23.10;99.90
26655;DHT22;14278;50.784;4.630;2023-06-22T08:28:24;23.30;99.90
26655;DHT22;14278;50.784;4.630;2023-06-22T08:30:49;23.20;99.90
26655;DHT22;14278;50.784;4.630;2023-06-22T08:33:15;23.50;99.90
26655;DHT22;14278;50.784;4.630;2023-06-22T08:35:41;23.40;99.90
26655;DHT22;14278;50.784;4.630;2023-06-22T08:38:07;22.50;99.90
26655;DHT22;14278;50.784;4.630;2023-06-22T08:40:34;22.40;99.90
26655;DHT22;14278;50.784;4.630;2023-06-22T08:43:00;22.20;99.90
26655;DHT22;14278;50.784;4.630;2023-06-22T08:45:26;22.20;99.90
26655;DHT22;14278;50.784;4.630;2023-06-22T08:47:52;22.70;99.90
26655;DHT22;14278;50.784;4.630;2023-06-22T08:50:17;22.90;99.90
26655;DHT22;14278;50.784;4.630;2023-06-22T08:52:44;23.40;99.90
26655;DHT22;14278;50.784;4.630;2023-06-22T08:55:11;23.70;99.90
26655;DHT22;14278;50.784;4.630;2023-06-22T08:57:37;24.00;99.90
26655;DHT22;14278;50.784;4.630;2023-06-22T09:00:06;24.20;99.90
26655;DHT22;14278;50.784;4.630;2023-06-22T09:02:38;23.80;99.90
26655;DHT22;14278;50.784;4.630;2023-06-22T09:05:06;23.90;99.90
26655;DHT22;14278;50.784;4.630;2023-06-22T09:07:32;24.20;99.90
26655;DHT22;14278;50.784;4.630;2023-06-22T09:09:59;24.00;99.90
26655;DHT22;14278;50.784;4.630;2023-06-22T09:12:25;24.10;99.90
26655;DHT22;14278;50.784;4.630;2023-06-22T09:14:53;23.70;99.90
26655;DHT22;14278;50.784;4.630;2023-06-22T09:17:19;23.80;99.90
26655;DHT22;14278;50.784;4.630;2023-06-22T09:19:45;23.90;99.90
26655;DHT22;14278;50.784;4.630;2023-06-22T09:22:13;23.80;99.90
26655;DHT22;14278;50.784;4.630;2023-06-22T09:24:38;24.00;99.90
26655;DHT22;14278;50.784;4.630;2023-06-22T09:27:04;24.00;99.90
26655;DHT22;14278;50.784;4.630;2023-06-22T09:29:31;24.10;99.90
26655;DHT22;14278;50.784;4.630;2023-06-22T09:31:59;24.00;99.90
26655;DHT22;14278;50.784;4.630;2023-06-22T09:34:25;23.50;99.90
26655;DHT22;14278;50.784;4.630;2023-06-22T09:36:51;23.70;99.90
26655;DHT22;14278;50.784;4.630;2023-06-22T09:39:18;23.70;99.90
26655;DHT22;14278;50.784;4.630;2023-06-22T09:41:44;23.80;99.90
26655;DHT22;14278;50.784;4.630;2023-06-22T09:44:10;24.00;99.90
26655;DHT22;14278;50.784;4.630;2023-06-22T09:46:36;23.70;99.90
26655;DHT22;14278;50.784;4.630;2023-06-22T09:49:01;23.40;99.90
26655;DHT22;14278;50.784;4.630;2023-06-22T09:51:27;23.40;99.90
26655;DHT22;14278;50.784;4.630;2023-06-22T09:53:53;23.30;99.90
26655;DHT22;14278;50.784;4.630;2023-06-22T09:56:20;23.10;99.90
26655;DHT22;14278;50.784;4.630;2023-06-22T09:58:46;23.30;99.90
26655;DHT22;14278;50.784;4.630;2023-06-22T10:01:13;23.00;99.90
26655;DHT22;14278;50.784;4.630;2023-06-22T10:03:41;22.90;99.90
26655;DHT22;14278;50.784;4.630;2023-06-22T10:06:08;23.20;99.90
26655;DHT22;14278;50.784;4.630;2023-06-22T10:08:34;23.30;99.90
26655;DHT22;14278;50.784;4.630;2023-06-22T10:11:01;23.30;99.90
26655;DHT22;14278;50.784;4.630;2023-06-22T10:13:26;22.80;99.90
26655;DHT22;14278;50.784;4.630;2023-06-22T10:15:52;22.90;99.90
26655;DHT22;14278;50.784;4.630;2023-06-22T10:18:19;22.80;99.90
26655;DHT22;14278;50.784;4.630;2023-06-22T10:20:49;22.90;99.90
26655;DHT22;14278;50.784;4.630;2023-06-22T10:23:19;22.80;99.90
26655;DHT22;14278;50.784;4.630;2023-06-22T10:25:45;23.00;99.90
26655;DHT22;14278;50.784;4.630;2023-06-22T10:28:11;22.30;99.90
26655;DHT22;14278;50.784;4.630;2023-06-22T10:30:39;22.40;99.90
26655;DHT22;14278;50.784;4.630;2023-06-22T10:33:07;22.30;99.90
26655;DHT22;14278;50.784;4.630;2023-06-22T10:35:33;22.20;99.90
26655;DHT22;14278;50.784;4.630;2023-06-22T10:37:59;22.00;99.90
26655;DHT22;14278;50.784;4.630;2023-06-22T10:40:25;22.20;99.90
26655;DHT22;14278;50.784;4.630;2023-06-22T10:42:51;21.90;99.90
26655;DHT22;14278;50.784;4.630;2023-06-22T10:45:17;21.20;99.90
26655;DHT22;14278;50.784;4.630;2023-06-22T10:47:43;21.40;99.90
26655;DHT22;14278;50.784;4.630;2023-06-22T10:50:09;21.40;99.90
26655;DHT22;14278;50.784;4.630;2023-06-22T10:52:35;21.10;99.90
26655;DHT22;14278;50.784;4.630;2023-06-22T10:55:01;21.00;99.90
26655;DHT22;14278;50.784;4.630;2023-06-22T10:57:27;20.90;99.90
26655;DHT22;14278;50.784;4.630;2023-06-22T10:59:53;20.90;99.90
26655;DHT22;14278;50.784;4.630;2023-06-22T11:02:18;20.90;99.90
26655;DHT22;14278;50.784;4.630;2023-06-22T11:04:44;20.70;99.90
26655;DHT22;14278;50.784;4.630;2023-06-22T11:07:11;20.60;99.90
26655;DHT22;14278;50.784;4.630;2023-06-22T11:09:37;20.40;99.90
26655;DHT22;14278;50.784;4.630;2023-06-22T11:12:05;20.00;99.90
26655;DHT22;14278;50.784;4.630;2023-06-22T11:14:31;20.20;99.90
26655;DHT22;14278;50.784;4.630;2023-06-22T11:16:59;20.60;99.90
26655;DHT22;14278;50.784;4.630;2023-06-22T11:19:25;20.90;99.90
26655;DHT22;14278;50.784;4.630;2023-06-22T11:21:51;20.90;99.90
26655;DHT22;14278;50.784;4.630;2023-06-22T11:24:17;20.60;99.90
26655;DHT22;14278;50.784;4.630;2023-06-22T11:26:43;20.00;99.90
26655;DHT22;14278;50.784;4.630;2023-06-22T11:29:08;20.10;99.90
26655;DHT22;14278;50.784;4.630;2023-06-22T11:31:35;20.30;99.90
26655;DHT22;14278;50.784;4.630;2023-06-22T11:34:01;20.50;99.90
26655;DHT22;14278;50.784;4.630;2023-06-22T11:36:27;20.60;99.90
26655;DHT22;14278;50.784;4.630;2023-06-22T11:38:53;20.70;99.90
26655;DHT22;14278;50.784;4.630;2023-06-22T11:41:18;20.70;99.90
26655;DHT22;14278;50.784;4.630;2023-06-22T11:43:45;20.80;99.90
26655;DHT22;14278;50.784;4.630;2023-06-22T11:46:10;20.90;99.90
26655;DHT22;14278;50.784;4.630;2023-06-22T11:48:37;20.80;99.90
26655;DHT22;14278;50.784;4.630;2023-06-22T11:51:03;21.00;99.90
26655;DHT22;14278;50.784;4.630;2023-06-22T11:53:29;21.10;99.90
26655;DHT22;14278;50.784;4.630;2023-06-22T11:55:56;21.10;99.90
26655;DHT22;14278;50.784;4.630;2023-06-22T11:58:22;21.10;99.90
26655;DHT22;14278;50.784;4.630;2023-06-22T12:00:48;21.20;99.90
26655;DHT22;14278;50.784;4.630;2023-06-22T12:03:14;21.40;99.90
26655;DHT22;14278;50.784;4.630;2023-06-22T12:05:40;21.60;99.90
26655;DHT22;14278;50.784;4.630;2023-06-22T12:08:07;21.40;99.90
26655;DHT22;14278;50.784;4.630;2023-06-22T12:10:33;21.30;99.90
26655;DHT22;14278;50.784;4.630;2023-06-22T12:12:58;21.30;99.90
26655;DHT22;14278;50.784;4.630;2023-06-22T12:15:26;20.90;99.90
26655;DHT22;14278;50.784;4.630;2023-06-22T12:17:52;20.30;99.90
26655;DHT22;14278;50.784;4.630;2023-06-22T12:20:18;20.10;99.90
26655;DHT22;14278;50.784;4.630;2023-06-22T12:22:44;20.50;99.90
26655;DHT22;14278;50.784;4.630;2023-06-22T12:25:10;20.80;99.90
26655;DHT22;14278;50.784;4.630;2023-06-22T12:27:37;20.90;99.90
26655;DHT22;14278;50.784;4.630;2023-06-22T12:30:03;20.90;99.90
26655;DHT22;14278;50.784;4.630;2023-06-22T12:32:30;20.70;99.90
26655;DHT22;14278;50.784;4.630;2023-06-22T12:34:56;20.70;99.90
26655;DHT22;14278;50.784;4.630;2023-06-22T12:37:22;20.90;99.90
26655;DHT22;14278;50.784;4.630;2023-06-22T12:39:48;20.80;99.90
26655;DHT22;14278;50.784;4.630;2023-06-22T12:42:15;20.80;99.90
26655;DHT22;14278;50.784;4.630;2023-06-22T12:44:42;20.70;99.90
26655;DHT22;14278;50.784;4.630;2023-06-22T12:47:08;20.80;99.90
26655;DHT22;14278;50.784;4.630;2023-06-22T12:49:35;20.70;99.90
26655;DHT22;14278;50.784;4.630;2023-06-22T12:52:02;20.70;99.90
26655;DHT22;14278;50.784;4.630;2023-06-22T12:54:27;20.80;99.90
26655;DHT22;14278;50.784;4.630;2023-06-22T12:56:55;20.60;99.90
26655;DHT22;14278;50.784;4.630;2023-06-22T12:59:21;20.80;99.90
26655;DHT22;14278;50.784;4.630;2023-06-22T13:01:47;20.60;99.90
26655;DHT22;14278;50.784;4.630;2023-06-22T13:04:13;20.70;99.90
26655;DHT22;14278;50.784;4.630;2023-06-22T13:06:43;20.80;99.90
26655;DHT22;14278;50.784;4.630;2023-06-22T13:09:10;20.70;99.90
26655;DHT22;14278;50.784;4.630;2023-06-22T13:11:36;20.50;99.90
26655;DHT22;14278;50.784;4.630;2023-06-22T13:14:01;20.40;99.90
26655;DHT22;14278;50.784;4.630;2023-06-22T13:16:27;20.60;99.90
26655;DHT22;14278;50.784;4.630;2023-06-22T13:18:53;20.50;99.90
26655;DHT22;14278;50.784;4.630;2023-06-22T13:21:19;20.30;99.90
26655;DHT22;14278;50.784;4.630;2023-06-22T13:23:45;20.20;99.90
26655;DHT22;14278;50.784;4.630;2023-06-22T13:26:11;20.40;99.90
26655;DHT22;14278;50.784;4.630;2023-06-22T13:28:36;20.30;99.90
26655;DHT22;14278;50.784;4.630;2023-06-22T13:31:02;20.30;99.90
26655;DHT22;14278;50.784;4.630;2023-06-22T13:33:28;20.20;99.90
26655;DHT22;14278;50.784;4.630;2023-06-22T13:35:54;20.30;99.90
26655;DHT22;14278;50.784;4.630;2023-06-22T13:38:20;20.40;99.90
26655;DHT22;14278;50.784;4.630;2023-06-22T13:40:46;20.30;99.90
26655;DHT22;14278;50.784;4.630;2023-06-22T13:43:13;20.40;99.90
26655;DHT22;14278;50.784;4.630;2023-06-22T13:45:39;20.30;99.90
26655;DHT22;14278;50.784;4.630;2023-06-22T13:48:05;20.40;99.90
26655;DHT22;14278;50.784;4.630;2023-06-22T13:50:31;20.30;99.90
26655;DHT22;14278;50.784;4.630;2023-06-22T13:52:57;20.40;99.90
26655;DHT22;14278;50.784;4.630;2023-06-22T13:55:22;20.40;99.90
26655;DHT22;14278;50.784;4.630;2023-06-22T13:57:49;20.20;99.90
26655;DHT22;14278;50.784;4.630;2023-06-22T14:00:16;20.00;99.90
26655;DHT22;14278;50.784;4.630;2023-06-22T14:02:42;20.20;99.90
26655;DHT22;14278;50.784;4.630;2023-06-22T14:05:08;20.20;99.90
26655;DHT22;14278;50.784;4.630;2023-06-22T14:07:34;20.30;99.90
26655;DHT22;14278;50.784;4.630;2023-06-22T14:10:00;20.40;99.90
26655;DHT22;14278;50.784;4.630;2023-06-22T14:12:26;20.40;99.90
26655;DHT22;14278;50.784;4.630;2023-06-22T14:14:52;20.40;99.90
26655;DHT22;14278;50.784;4.630;2023-06-22T14:17:18;20.50;99.90
26655;DHT22;14278;50.784;4.630;2023-06-22T14:19:49;20.60;99.90
26655;DHT22;14278;50.784;4.630;2023-06-22T14:22:16;20.60;99.90
26655;DHT22;14278;50.784;4.630;2023-06-22T14:24:41;20.40;99.90
26655;DHT22;14278;50.784;4.630;2023-06-22T14:27:07;20.30;99.90
26655;DHT22;14278;50.784;4.630;2023-06-22T14:29:34;20.10;99.90
26655;DHT22;14278;50.784;4.630;2023-06-22T14:32:00;20.30;99.90
26655;DHT22;14278;50.784;4.630;2023-06-22T14:34:26;20.30;99.90
26655;DHT22;14278;50.784;4.630;2023-06-22T14:36:52;20.40;99.90
26655;DHT22;14278;50.784;4.630;2023-06-22T14:39:18;20.40;99.90
26655;DHT22;14278;50.784;4.630;2023-06-22T14:41:43;20.50;99.90
26655;DHT22;14278;50.784;4.630;2023-06-22T14:44:09;20.40;99.90
26655;DHT22;14278;50.784;4.630;2023-06-22T14:46:35;20.20;99.90
26655;DHT22;14278;50.784;4.630;2023-06-22T14:49:01;20.20;99.90
26655;DHT22;14278;50.784;4.630;2023-06-22T14:51:27;20.20;99.90
26655;DHT22;14278;50.784;4.630;2023-06-22T14:53:53;20.20;99.90
26655;DHT22;14278;50.784;4.630;2023-06-22T14:56:18;20.20;99.90
26655;DHT22;14278;50.784;4.630;2023-06-22T14:58:45;20.40;99.90
26655;DHT22;14278;50.784;4.630;2023-06-22T15:01:11;20.40;99.90
26655;DHT22;14278;50.784;4.630;2023-06-22T15:03:37;20.30;99.90
26655;DHT22;14278;50.784;4.630;2023-06-22T15:06:03;20.40;99.90
26655;DHT22;14278;50.784;4.630;2023-06-22T15:08:29;20.40;99.90
26655;DHT22;14278;50.784;4.630;2023-06-22T15:10:58;20.50;99.90
26655;DHT22;14278;50.784;4.630;2023-06-22T15:13:24;20.30;99.90
26655;DHT22;14278;50.784;4.630;2023-06-22T15:15:50;20.50;99.90
26655;DHT22;14278;50.784;4.630;2023-06-22T15:18:16;20.80;99.90
26655;DHT22;14278;50.784;4.630;2023-06-22T15:20:43;20.90;99.90
26655;DHT22;14278;50.784;4.630;2023-06-22T15:23:13;21.00;99.90
26655;DHT22;14278;50.784;4.630;2023-06-22T15:25:39;21.20;99.90
26655;DHT22;14278;50.784;4.630;2023-06-22T15:28:05;21.10;99.90
26655;DHT22;14278;50.784;4.630;2023-06-22T15:30:31;20.80;99.90